Time;durP1;ratioP1;P1;durP2;ratioP2;P2;SDS_P1;SDS_P2;PMS_P1;PMS_P2;Temp;Humidity;BMP_temperature;BMP_pressure;BME280_temperature;BME280_humidity;BME280_pressure;Samples;Min_cycle;Max_cycle;Signal;HPM_P1;HPM_P2
2021/09/11 00:01:32;;;;;;;20.25;14.60;;;17.00;94.20;;;;;;4892056;28;20208;-92
2021/09/11 00:04:55;;;;;;;;;;;;;;;;;;;;;
2021/09/11 00:07:26;;;;;;;16.98;14.75;;;17.20;94.20;;;;;;4936030;28;20722;-92
2021/09/11 00:09:52;;;;;;;20.60;14.15;;;17.10;94.10;;;;;;5037686;28;20258;-92
2021/09/11 00:12:48;;;;;;;20.85;14.50;;;17.10;94.00;;;;;;5040229;28;20196;-92
2021/09/11 00:15:32;;;;;;;;;;;;;;;;;;;;;
2021/09/11 00:18:16;;;;;;;17.27;14.32;;;17.10;94.00;;;;;;5058977;28;20215;-93
2021/09/11 00:20:51;;;;;;;20.90;13.00;;;17.10;94.00;;;;;;5041214;28;20176;-93
2021/09/11 00:26:14;;;;;;;16.40;12.40;;;17.20;94.00;;;;;;5060409;28;20249;-93
2021/09/11 00:29:02;;;;;;;18.67;13.98;;;17.20;93.90;;;;;;5040531;28;20266;-93
2021/09/11 00:31:50;;;;;;;16.45;14.13;;;17.20;93.80;;;;;;5041389;28;20200;-92
2021/09/11 00:34:24;;;;;;;16.08;13.77;;;17.20;93.80;;;;;;5040386;28;20172;-93
2021/09/11 00:36:49;;;;;;;18.00;14.00;;;17.20;93.90;;;;;;5040724;28;20192;-93
2021/09/11 00:39:41;;;;;;;15.30;13.10;;;17.30;93.90;;;;;;5040185;28;20196;-93
2021/09/11 00:42:07;;;;;;;16.08;14.15;;;17.30;93.80;;;;;;5039502;28;20619;-93
2021/09/11 00:44:39;;;;;;;17.08;13.63;;;17.20;93.70;;;;;;5042439;28;20172;-93
2021/09/11 00:47:37;;;;;;;20.45;14.88;;;17.20;93.70;;;;;;5041929;28;20267;-92
2021/09/11 00:50:20;;;;;;;15.73;13.65;;;17.20;93.80;;;;;;5040695;28;20169;-92
2021/09/11 00:52:50;;;;;;;21.95;15.57;;;17.20;94.00;;;;;;5035661;28;20224;-93
2021/09/11 00:55:28;;;;;;;18.92;15.25;;;17.30;94.00;;;;;;5039748;28;20298;-93
2021/09/11 00:58:17;;;;;;;24.67;16.95;;;17.30;94.10;;;;;;5038012;28;20180;-92
2021/09/11 01:09:01;;;;;;;24.83;17.27;;;17.30;94.20;;;;;;5054449;28;20208;-92
2021/09/11 01:11:45;;;;;;;22.15;17.23;;;17.30;94.20;;;;;;5031897;28;20668;-91
2021/09/11 01:14:45;;;;;;;23.02;16.58;;;17.30;94.20;;;;;;5038719;28;20247;-93
2021/09/11 01:17:29;;;;;;;33.80;18.35;;;17.30;94.20;;;;;;5038894;28;20200;-92
2021/09/11 01:20:05;;;;;;;24.73;18.65;;;17.30;94.20;;;;;;5039086;28;20176;-92
2021/09/11 01:23:01;;;;;;;25.05;18.58;;;17.30;94.20;;;;;;5038387;28;20211;-92
2021/09/11 01:26:19;;;;;;;32.72;20.65;;;17.30;94.30;;;;;;5055516;28;20725;-92
2021/09/11 01:29:10;;;;;;;32.50;19.15;;;17.30;94.30;;;;;;5037984;28;20245;-92
2021/09/11 01:32:03;;;;;;;27.83;20.92;;;17.30;94.30;;;;;;5041935;28;20215;-92
2021/09/11 01:34:48;;;;;;;;;;;;;;;;;;;;;
2021/09/11 01:37:23;;;;;;;27.85;21.92;;;17.30;94.30;;;;;;5056164;28;20275;-92
2021/09/11 01:40:22;;;;;;;34.83;22.35;;;17.30;94.40;;;;;;5038169;28;20183;-92
2021/09/11 01:42:51;;;;;;;31.42;21.42;;;17.30;94.40;;;;;;5037484;28;20200;-92
2021/09/11 01:45:19;;;;;;;34.72;23.60;;;17.30;94.40;;;;;;5037313;28;20182;-92
2021/09/11 01:47:51;;;;;;;35.42;22.88;;;17.30;94.30;;;;;;5036310;28;20233;-91
2021/09/11 01:50:26;;;;;;;43.42;25.48;;;17.30;94.40;;;;;;5030762;28;20215;-92
2021/09/11 01:52:56;;;;;;;42.60;25.27;;;17.30;94.40;;;;;;5038262;28;20218;-92
2021/09/11 01:55:28;;;;;;;41.95;26.17;;;17.20;94.40;;;;;;5036860;28;20207;-91
2021/09/11 01:58:12;;;;;;;46.25;27.92;;;17.20;94.50;;;;;;5037546;28;20180;-92
2021/09/11 02:01:18;;;;;;;46.47;29.35;;;17.30;94.60;;;;;;5037593;28;20204;-92
2021/09/11 02:04:01;;;;;;;47.63;29.55;;;17.30;94.60;;;;;;5038035;28;20631;-92
2021/09/11 02:06:39;;;;;;;46.45;28.75;;;17.20;94.60;;;;;;5037360;28;20186;-93
2021/09/11 02:09:37;;;;;;;48.75;30.95;;;17.30;94.70;;;;;;5038495;28;20195;-92
2021/09/11 02:12:09;;;;;;;57.30;33.00;;;17.30;94.70;;;;;;5036683;28;20719;-92
2021/09/11 02:14:46;;;;;;;56.53;33.90;;;17.30;94.70;;;;;;5036452;28;20546;-92
2021/09/11 02:17:18;;;;;;;53.67;30.33;;;17.30;94.70;;;;;;5039526;28;20176;-92
2021/09/11 02:19:49;;;;;;;67.03;37.13;;;17.20;94.80;;;;;;5040613;28;20185;-92
2021/09/11 02:22:45;;;;;;;77.35;39.17;;;17.20;94.90;;;;;;5041309;28;20202;-92
2021/09/11 02:25:11;;;;;;;76.75;39.22;;;17.30;94.90;;;;;;5042112;28;20287;-92
2021/09/11 02:27:49;;;;;;;82.45;40.80;;;17.30;95.00;;;;;;5043204;28;20656;-92
2021/09/11 02:30:40;;;;;;;78.53;41.45;;;17.30;95.00;;;;;;5042699;28;20164;-92
2021/09/11 02:33:09;;;;;;;91.20;44.35;;;17.30;95.00;;;;;;5040463;28;20232;-92
2021/09/11 02:36:00;;;;;;;95.68;45.22;;;17.30;95.10;;;;;;5041620;28;20204;-92
2021/09/11 02:38:26;;;;;;;91.50;42.97;;;17.30;95.10;;;;;;5041064;28;20247;-92
2021/09/11 02:40:52;;;;;;;108.93;47.35;;;17.40;95.10;;;;;;5040510;28;20188;-92
2021/09/11 02:43:18;;;;;;;120.50;48.25;;;17.30;95.20;;;;;;5040705;28;20282;-92
2021/09/11 02:46:20;;;;;;;115.85;48.70;;;17.30;95.20;;;;;;5041145;28;20184;-92
2021/09/11 02:48:46;;;;;;;110.00;46.10;;;17.30;95.30;;;;;;5058488;28;20187;-92
2021/09/11 02:51:11;;;;;;;108.90;46.38;;;17.30;95.30;;;;;;5040142;28;20732;-92
2021/09/11 02:53:51;;;;;;;108.30;48.10;;;17.30;95.30;;;;;;5040230;28;20207;-93
2021/09/11 02:56:17;;;;;;;108.95;47.97;;;17.30;95.40;;;;;;5040126;28;20199;-92
2021/09/11 02:58:43;;;;;;;108.88;47.95;;;17.30;95.40;;;;;;5039427;28;20263;-91
2021/09/11 03:01:27;;;;;;;100.05;45.50;;;17.30;95.40;;;;;;5039446;28;20179;-92
2021/09/11 03:03:53;;;;;;;115.18;49.65;;;17.30;95.40;;;;;;5040429;28;20247;-91
2021/09/11 03:06:32;;;;;;;117.07;50.67;;;17.30;95.40;;;;;;5040540;28;20203;-92
2021/09/11 03:09:18;;;;;;;111.65;48.85;;;17.30;95.40;;;;;;5039055;28;20286;-91
2021/09/11 03:11:44;;;;;;;115.35;50.80;;;17.30;95.40;;;;;;5025782;28;20216;-92
2021/09/11 03:14:20;;;;;;;110.78;50.40;;;17.30;95.40;;;;;;5039778;28;20176;-92
2021/09/11 03:16:51;;;;;;;117.55;50.63;;;17.40;95.40;;;;;;5040323;28;20215;-92
2021/09/11 03:19:36;;;;;;;119.53;53.50;;;17.50;95.40;;;;;;5040841;28;20207;-91
2021/09/11 03:22:31;;;;;;;119.63;52.38;;;17.40;95.40;;;;;;5040058;28;20269;-92
2021/09/11 03:25:23;;;;;;;121.07;52.67;;;17.40;95.40;;;;;;5029361;28;20184;-92
2021/09/11 03:28:36;;;;;;;124.57;56.60;;;17.40;95.40;;;;;;5039309;28;20164;-92
2021/09/11 03:31:31;;;;;;;130.70;57.67;;;17.40;95.40;;;;;;4952495;28;20191;-92
2021/09/11 03:35:06;;;;;;;137.50;58.38;;;17.40;95.40;;;;;;5035012;28;20180;-92
2021/09/11 03:37:41;;;;;;;139.20;57.90;;;17.40;95.40;;;;;;4974750;28;20190;-92
2021/09/11 03:40:42;;;;;;;156.32;59.15;;;17.40;95.40;;;;;;4957564;28;20195;-92
2021/09/11 03:43:20;;;;;;;148.98;59.40;;;17.40;95.40;;;;;;4958958;28;20319;-92
2021/09/11 03:45:54;;;;;;;139.15;58.95;;;17.50;95.40;;;;;;5020136;28;20562;-92
2021/09/11 03:48:29;;;;;;;140.70;60.20;;;17.50;95.40;;;;;;5039551;28;20184;-92
2021/09/11 03:51:02;;;;;;;134.48;57.72;;;17.50;95.40;;;;;;5039604;28;20624;-93
2021/09/11 03:53:34;;;;;;;152.30;59.95;;;17.50;95.40;;;;;;5038969;28;20206;-92
2021/09/11 03:56:09;;;;;;;148.55;60.80;;;17.50;95.40;;;;;;5039233;28;20216;-91
2021/09/11 03:58:38;;;;;;;135.23;57.80;;;17.60;95.40;;;;;;5038215;28;20254;-92
2021/09/11 04:01:09;;;;;;;134.52;57.67;;;17.50;95.40;;;;;;5037642;28;20184;-91
2021/09/11 04:03:41;;;;;;;133.27;58.17;;;17.60;95.40;;;;;;5038438;28;20168;-92
2021/09/11 04:12:15;;;;;;;120.78;54.22;;;17.60;95.30;;;;;;5035628;28;20255;-92
2021/09/11 04:14:47;;;;;;;110.10;51.08;;;17.60;95.30;;;;;;5039846;28;20168;-92
2021/09/11 04:17:21;;;;;;;101.70;48.92;;;17.50;95.20;;;;;;5038539;28;20184;-92
2021/09/11 04:20:13;;;;;;;95.88;47.63;;;17.50;95.20;;;;;;5039034;28;20210;-92
2021/09/11 04:22:42;;;;;;;98.60;47.70;;;17.50;95.10;;;;;;5055173;28;20210;-91
2021/09/11 04:25:20;;;;;;;93.28;47.88;;;17.50;95.00;;;;;;5039269;28;20176;-92
2021/09/11 04:27:48;;;;;;;95.18;47.78;;;17.50;95.00;;;;;;5039140;28;20191;-92
2021/09/11 04:30:23;;;;;;;99.50;48.05;;;17.60;95.00;;;;;;5037533;28;20275;-92
2021/09/11 04:33:04;;;;;;;;;;;;;;;;;;;;;
2021/09/11 04:36:03;;;;;;;;;;;;;;;;;;;;;
2021/09/11 04:38:43;;;;;;;92.53;47.17;;;17.60;94.80;;;;;;5056902;28;20687;-91
2021/09/11 04:41:14;;;;;;;86.22;47.08;;;17.60;94.70;;;;;;5036877;28;20171;-92
2021/09/11 04:43:40;;;;;;;90.22;48.22;;;17.60;94.60;;;;;;5037935;28;20250;-92
2021/09/11 04:46:19;;;;;;;94.97;48.50;;;17.60;94.60;;;;;;5037952;28;20200;-92
2021/09/11 04:48:54;;;;;;;90.82;48.92;;;17.70;94.50;;;;;;5037687;28;20183;-91
2021/09/11 04:51:35;;;;;;;90.68;47.10;;;17.70;94.50;;;;;;5038329;28;20195;-92
2021/09/11 04:54:01;;;;;;;86.97;45.95;;;17.70;94.40;;;;;;5037988;28;20245;-92
2021/09/11 04:56:26;;;;;;;87.65;46.33;;;17.70;94.40;;;;;;5037639;28;20672;-91
2021/09/11 04:58:52;;;;;;;80.28;46.00;;;17.70;94.20;;;;;;5038144;28;20176;-92
2021/09/11 05:01:18;;;;;;;86.28;44.55;;;17.70;94.20;;;;;;5037973;28;20211;-92
2021/09/11 05:03:47;;;;;;;77.32;45.08;;;17.70;94.00;;;;;;5038462;28;20179;-92
2021/09/11 05:06:22;;;;;;;79.78;46.50;;;17.70;94.00;;;;;;5038257;28;20258;-92
2021/09/11 05:09:09;;;;;;;75.40;42.65;;;17.70;94.00;;;;;;5037461;28;20199;-92
2021/09/11 05:11:39;;;;;;;86.75;46.70;;;17.70;93.90;;;;;;5037531;28;20212;-91
2021/09/11 05:14:30;;;;;;;;;;;;;;;;;;;;;
2021/09/11 05:17:46;;;;;;;87.88;48.28;;;17.70;93.70;;;;;;5055440;28;20211;-91
2021/09/11 05:20:34;;;;;;;;;;;;;;;;;;;;;
2021/09/11 05:23:38;;;;;;;86.32;50.15;;;17.70;93.60;;;;;;5055129;28;20202;-91
2021/09/11 05:26:07;;;;;;;91.90;51.17;;;17.80;93.70;;;;;;4997039;28;20199;-91
2021/09/11 05:29:21;;;;;;;91.50;49.25;;;17.80;93.70;;;;;;5037633;28;20184;-91
2021/09/11 05:31:46;;;;;;;91.28;49.55;;;17.80;93.80;;;;;;5013846;28;20199;-91
2021/09/11 05:34:18;;;;;;;99.43;49.80;;;17.80;93.80;;;;;;5037964;28;20178;-91
2021/09/11 05:36:52;;;;;;;93.65;51.03;;;17.70;93.90;;;;;;5037517;28;20298;-91
2021/09/11 05:39:39;;;;;;;87.70;47.70;;;17.80;93.90;;;;;;5038541;28;20172;-91
2021/09/11 05:42:15;;;;;;;;;;;;;;;;;;;;;
2021/09/11 05:44:55;;;;;;;96.82;50.85;;;17.80;93.90;;;;;;5056930;28;20250;-91
2021/09/11 05:48:15;;;;;;;95.60;50.83;;;17.80;94.00;;;;;;5038158;28;20195;-91
2021/09/11 05:50:47;;;;;;;106.80;54.20;;;17.80;94.10;;;;;;5018763;28;20553;-91
2021/09/11 05:53:16;;;;;;;113.60;53.20;;;17.80;94.20;;;;;;5042145;28;20206;-91
2021/09/11 05:55:41;;;;;;;130.20;55.30;;;17.80;94.20;;;;;;5041722;28;20200;-92
2021/09/11 05:58:20;;;;;;;132.20;56.92;;;17.80;94.20;;;;;;5043485;28;20267;-91
2021/09/11 06:03:42;;;;;;;141.75;60.00;;;17.90;94.30;;;;;;5060568;28;20242;-92
2021/09/11 06:06:08;;;;;;;146.63;60.17;;;17.90;94.30;;;;;;5060338;28;20168;-91
2021/09/11 06:08:45;;;;;;;156.00;63.28;;;17.90;94.30;;;;;;5062066;28;20237;-91
2021/09/11 06:11:18;;;;;;;157.48;63.92;;;17.90;94.30;;;;;;5078563;28;20521;-91
2021/09/11 06:14:30;;;;;;;156.85;62.65;;;18.00;94.30;;;;;;5061975;28;20183;-91
2021/09/11 06:16:58;;;;;;;164.43;63.50;;;18.00;94.30;;;;;;4986581;28;20355;-91
2021/09/11 06:19:34;;;;;;;155.10;61.90;;;18.00;94.30;;;;;;5002420;28;20715;-92
2021/09/11 06:22:01;;;;;;;151.27;60.72;;;18.10;94.20;;;;;;5065731;28;20271;-92
2021/09/11 06:24:38;;;;;;;152.77;62.55;;;18.10;94.30;;;;;;5064919;28;20203;-92
2021/09/11 06:27:07;;;;;;;164.65;66.57;;;18.20;94.20;;;;;;5065934;28;20176;-92
2021/09/11 06:29:49;;;;;;;164.23;64.38;;;18.10;94.20;;;;;;5064285;28;20180;-91
2021/09/11 06:32:15;;;;;;;159.57;62.17;;;18.20;94.20;;;;;;5056967;28;20191;-90
2021/09/11 06:34:43;;;;;;;159.68;63.50;;;18.20;94.20;;;;;;5057507;28;20250;-89
2021/09/11 06:37:08;;;;;;;165.73;65.82;;;18.20;94.10;;;;;;5057611;28;20172;-91
2021/09/11 06:39:34;;;;;;;158.13;62.97;;;18.20;94.10;;;;;;5056585;28;20187;-90
2021/09/11 06:41:59;;;;;;;162.20;63.80;;;18.20;94.00;;;;;;5055810;28;20199;-90
2021/09/11 06:44:25;;;;;;;163.63;62.95;;;18.20;93.90;;;;;;5056041;28;20249;-91
2021/09/11 06:46:51;;;;;;;157.95;64.43;;;18.20;93.90;;;;;;5056281;28;20194;-90
2021/09/11 06:49:16;;;;;;;152.70;63.40;;;18.20;93.90;;;;;;5055761;28;20191;-90
2021/09/11 06:51:42;;;;;;;159.07;63.10;;;18.20;93.90;;;;;;5055312;28;20203;-90
2021/09/11 06:54:08;;;;;;;157.98;62.70;;;18.30;94.00;;;;;;5055304;28;20268;-90
2021/09/11 06:56:35;;;;;;;163.52;65.45;;;18.30;94.00;;;;;;5055684;28;20250;-90
2021/09/11 06:59:01;;;;;;;156.65;62.45;;;18.20;94.00;;;;;;5057106;28;20168;-90
2021/09/11 07:01:26;;;;;;;159.18;63.63;;;18.20;94.00;;;;;;5055247;28;20188;-90
2021/09/11 07:04:10;;;;;;;157.43;64.90;;;18.30;94.00;;;;;;5054696;28;20270;-90
2021/09/11 07:06:35;;;;;;;144.25;58.67;;;18.30;94.10;;;;;;5056401;28;20168;-90
2021/09/11 07:09:01;;;;;;;164.32;64.45;;;18.30;94.10;;;;;;5055305;28;21031;-90
2021/09/11 07:11:26;;;;;;;161.30;64.38;;;18.30;94.00;;;;;;5055135;28;20214;-90
2021/09/11 07:13:52;;;;;;;159.15;64.35;;;18.30;94.10;;;;;;5056375;28;20601;-89
2021/09/11 07:16:18;;;;;;;139.10;60.28;;;18.30;94.10;;;;;;5054945;28;20576;-90
2021/09/11 07:18:43;;;;;;;147.70;60.10;;;18.30;93.80;;;;;;5055152;28;20674;-90
2021/09/11 07:21:09;;;;;;;150.02;60.15;;;18.30;93.80;;;;;;5055135;28;20176;-90
2021/09/11 07:23:35;;;;;;;130.68;59.88;;;18.40;93.80;;;;;;5055068;28;20171;-90
2021/09/11 07:26:01;;;;;;;148.23;60.45;;;18.40;93.80;;;;;;5056419;28;20172;-90
2021/09/11 07:28:27;;;;;;;152.30;61.50;;;18.40;93.70;;;;;;5054953;28;20182;-90
2021/09/11 07:30:53;;;;;;;155.93;61.22;;;18.50;93.80;;;;;;5054968;28;20183;-89
2021/09/11 07:33:18;;;;;;;154.68;59.47;;;18.50;93.70;;;;;;5054957;28;20290;-90
2021/09/11 07:35:45;;;;;;;158.30;62.05;;;18.40;93.70;;;;;;5055450;28;20199;-90
2021/09/11 07:38:11;;;;;;;161.48;63.45;;;18.50;93.70;;;;;;5054915;28;20172;-90
2021/09/11 07:40:37;;;;;;;164.63;65.28;;;18.50;93.70;;;;;;5056092;28;20165;-90
2021/09/11 07:43:04;;;;;;;149.30;61.60;;;18.50;93.70;;;;;;5054977;28;20203;-90
2021/09/11 07:45:30;;;;;;;164.60;61.83;;;18.60;93.70;;;;;;5054938;28;20651;-90
2021/09/11 07:47:56;;;;;;;148.35;63.22;;;18.60;93.60;;;;;;5056248;28;20202;-90
2021/09/11 07:50:26;;;;;;;142.30;60.80;;;18.60;93.70;;;;;;5055045;28;20230;-90
2021/09/11 07:53:01;;;;;;;129.85;58.00;;;18.60;93.40;;;;;;5055108;28;20738;-90
2021/09/11 07:55:45;;;;;;;140.20;59.83;;;18.60;93.50;;;;;;5055424;28;20223;-91
2021/09/11 07:58:20;;;;;;;141.57;58.75;;;18.60;93.40;;;;;;5055872;28;20164;-91
2021/09/11 08:00:49;;;;;;;134.50;59.67;;;18.60;93.40;;;;;;5055250;28;20170;-91
2021/09/11 08:03:20;;;;;;;136.73;60.92;;;18.60;93.40;;;;;;5056213;28;20195;-91
2021/09/11 08:06:10;;;;;;;;;;;;;;;;;;;;;
2021/09/11 08:09:09;;;;;;;133.93;57.63;;;18.60;93.40;;;;;;5056132;28;20180;-91
2021/09/11 08:11:37;;;;;;;127.93;57.55;;;18.60;93.30;;;;;;5055406;28;20211;-91
2021/09/11 08:14:03;;;;;;;133.73;60.75;;;18.70;93.40;;;;;;5054014;28;20180;-91
2021/09/11 08:16:29;;;;;;;121.68;56.33;;;18.60;93.20;;;;;;5054202;28;20263;-90
2021/09/11 08:18:55;;;;;;;123.88;55.92;;;18.60;93.20;;;;;;5054934;28;20172;-90
2021/09/11 08:21:59;;;;;;;119.72;57.05;;;18.60;93.10;;;;;;5054271;28;20203;-91
2021/09/11 08:24:39;;;;;;;114.10;56.28;;;18.70;93.20;;;;;;4978047;28;20181;-91
2021/09/11 08:27:08;;;;;;;92.80;50.08;;;18.80;93.10;;;;;;4978275;28;20181;-90
2021/09/11 08:29:36;;;;;;;95.65;49.17;;;18.90;92.70;;;;;;4977341;28;20200;-90
2021/09/11 08:32:08;;;;;;;105.57;51.63;;;19.00;92.50;;;;;;4981034;28;20216;-91
2021/09/11 08:34:34;;;;;;;91.90;49.63;;;19.00;92.30;;;;;;5011875;28;20656;-91
2021/09/11 08:37:00;;;;;;;89.28;48.63;;;19.00;92.20;;;;;;5056235;28;20271;-91
2021/09/11 08:39:26;;;;;;;91.10;48.00;;;19.00;92.00;;;;;;5055772;28;20175;-90
2021/09/11 08:41:53;;;;;;;83.63;46.80;;;19.00;92.00;;;;;;5054797;28;20655;-90
2021/09/11 08:44:18;;;;;;;84.40;46.10;;;18.90;91.80;;;;;;5053203;28;20180;-90
2021/09/11 08:46:46;;;;;;;76.40;43.00;;;19.00;92.20;;;;;;5060021;28;20215;-91
2021/09/11 08:49:33;;;;;;;78.70;45.75;;;18.90;91.90;;;;;;5059843;28;20180;-91
2021/09/11 08:52:12;;;;;;;75.95;43.92;;;19.00;91.80;;;;;;5062223;28;20651;-91
2021/09/11 08:55:02;;;;;;;72.90;41.58;;;19.10;91.60;;;;;;5061836;28;20266;-91
2021/09/11 08:57:55;;;;;;;75.10;43.42;;;19.20;91.60;;;;;;5063027;28;20183;-91
2021/09/11 09:00:58;;;;;;;81.95;42.72;;;19.30;91.70;;;;;;5057355;28;20175;-92
2021/09/11 09:03:46;;;;;;;77.82;44.40;;;19.30;91.70;;;;;;5012226;28;20195;-91
2021/09/11 09:06:36;;;;;;;67.10;38.50;;;19.30;91.70;;;;;;5053023;28;20172;-90
2021/09/11 09:09:10;;;;;;;77.97;43.03;;;19.20;91.40;;;;;;5053674;28;20418;-91
2021/09/11 09:11:56;;;;;;;71.28;40.78;;;19.30;91.50;;;;;;5054705;28;20199;-90
2021/09/11 09:14:42;;;;;;;68.35;39.58;;;19.20;91.10;;;;;;5052866;28;20261;-89
2021/09/11 09:17:52;;;;;;;65.55;39.78;;;19.30;91.00;;;;;;5054443;28;20206;-91
2021/09/11 09:20:45;;;;;;;63.63;37.42;;;19.30;90.50;;;;;;5055869;28;20180;-91
2021/09/11 09:23:38;;;;;;;54.33;37.78;;;19.40;90.30;;;;;;5055116;28;20188;-91
2021/09/11 09:26:42;;;;;;;56.13;35.35;;;19.40;90.20;;;;;;5054169;28;20194;-91
2021/09/11 09:29:38;;;;;;;64.60;38.60;;;19.50;89.90;;;;;;5056779;28;20183;-91
2021/09/11 09:32:11;;;;;;;62.22;36.80;;;19.80;90.50;;;;;;5053253;28;20253;-90
2021/09/11 09:34:43;;;;;;;54.28;35.08;;;20.00;89.70;;;;;;5053675;28;20275;-90
2021/09/11 09:37:20;;;;;;;54.67;34.08;;;20.20;89.70;;;;;;5052486;28;20192;-90
2021/09/11 09:39:48;;;;;;;45.58;32.00;;;20.40;89.10;;;;;;5052497;28;20581;-90
2021/09/11 09:42:16;;;;;;;45.20;29.98;;;20.40;87.50;;;;;;5052329;28;20277;-90
2021/09/11 09:44:51;;;;;;;43.10;28.50;;;20.30;87.40;;;;;;5054951;28;20648;-90
2021/09/11 09:47:45;;;;;;;38.70;27.30;;;20.30;86.30;;;;;;5054592;28;20163;-90
2021/09/11 09:50:22;;;;;;;35.38;24.88;;;20.50;86.50;;;;;;5053710;28;20545;-91
2021/09/11 09:52:48;;;;;;;36.38;25.85;;;20.60;85.60;;;;;;5055875;28;20191;-90
2021/09/11 09:55:14;;;;;;;38.20;26.67;;;20.70;84.80;;;;;;5055214;28;20199;-90
2021/09/11 09:58:09;;;;;;;38.10;25.77;;;20.70;85.30;;;;;;5055427;28;20172;-90
2021/09/11 10:00:35;;;;;;;34.30;25.67;;;20.70;85.30;;;;;;5050844;28;20187;-91
2021/09/11 10:03:02;;;;;;;28.70;22.23;;;20.90;85.40;;;;;;5057044;28;20207;-90
2021/09/11 10:05:38;;;;;;;32.15;23.83;;;20.80;84.00;;;;;;5054132;28;20183;-90
2021/09/11 10:08:11;;;;;;;29.25;21.40;;;20.70;84.80;;;;;;5052686;28;20727;-90
2021/09/11 10:10:40;;;;;;;32.08;22.92;;;20.30;83.50;;;;;;5053718;28;20266;-90
2021/09/11 10:13:28;;;;;;;29.77;23.30;;;20.30;85.10;;;;;;5053488;28;20196;-90
2021/09/11 10:15:56;;;;;;;26.58;21.85;;;20.20;85.40;;;;;;5056906;28;20199;-91
2021/09/11 10:18:43;;;;;;;31.27;24.17;;;20.10;85.00;;;;;;5053715;28;20664;-91
2021/09/11 10:21:51;;;;;;;27.73;23.27;;;20.10;85.90;;;;;;5055011;28;20586;-90
2021/09/11 10:24:23;;;;;;;28.30;22.70;;;20.10;85.90;;;;;;5055548;28;20168;-90
2021/09/11 10:27:51;;;;;;;30.00;24.05;;;20.10;85.60;;;;;;5055016;28;20190;-90
2021/09/11 10:30:14;;;;;;;30.73;23.63;;;19.90;85.20;;;;;;5054599;28;20180;-90
2021/09/11 10:32:54;;;;;;;25.60;20.98;;;19.90;85.40;;;;;;5053379;28;20200;-91
2021/09/11 10:35:23;;;;;;;24.50;19.55;;;19.80;85.50;;;;;;5054445;28;20180;-91
2021/09/11 10:38:37;;;;;;;24.55;20.90;;;19.90;84.20;;;;;;5053967;28;20178;-90
2021/09/11 10:41:18;;;;;;;25.15;20.13;;;19.90;84.10;;;;;;5033869;28;20278;-90
2021/09/11 10:44:06;;;;;;;21.02;18.70;;;19.90;83.30;;;;;;5057718;28;20233;-90
2021/09/11 10:46:56;;;;;;;22.48;20.00;;;19.90;83.40;;;;;;5057188;28;20267;-90
2021/09/11 10:49:38;;;;;;;24.02;19.95;;;19.90;83.90;;;;;;5057295;28;20179;-91
2021/09/11 10:52:52;;;;;;;22.13;17.65;;;19.90;84.50;;;;;;5056698;28;20566;-90
2021/09/11 10:55:44;;;;;;;22.10;18.80;;;19.70;83.80;;;;;;5033627;28;20211;-90
2021/09/11 10:58:35;;;;;;;21.65;18.40;;;19.60;84.20;;;;;;5057821;28;20172;-90
2021/09/11 11:01:12;;;;;;;26.73;19.17;;;19.70;84.70;;;;;;5055790;28;20179;-90
2021/09/11 11:03:39;;;;;;;19.63;17.58;;;19.80;84.40;;;;;;5055984;28;20195;-90
2021/09/11 11:06:05;;;;;;;22.75;18.65;;;20.20;84.80;;;;;;5056431;28;20251;-89
2021/09/11 11:08:32;;;;;;;15.55;13.90;;;20.20;84.20;;;;;;5055067;28;20609;-89
2021/09/11 11:12:18;;;;;;;23.50;17.95;;;20.20;81.40;;;;;;5055494;28;20553;-91
2021/09/11 11:14:24;;;;;;;19.48;13.75;;;20.40;81.90;;;;;;5048690;28;20176;-89
2021/09/11 11:16:53;;;;;;;14.82;13.38;;;20.40;81.40;;;;;;5055918;28;20542;-90
2021/09/11 11:19:28;;;;;;;17.17;15.10;;;20.50;82.50;;;;;;5054722;28;20168;-89
2021/09/11 11:22:07;;;;;;;17.55;15.48;;;20.60;83.00;;;;;;5054666;28;20194;-89
2021/09/11 11:24:38;;;;;;;17.88;16.00;;;20.70;82.60;;;;;;5054677;28;20180;-90
2021/09/11 11:27:14;;;;;;;19.30;16.48;;;20.70;82.50;;;;;;5054444;28;20702;-90
2021/09/11 11:29:49;;;;;;;17.77;15.88;;;20.60;80.80;;;;;;5054365;28;20186;-89
2021/09/11 11:32:15;;;;;;;21.45;15.55;;;20.50;82.30;;;;;;5054573;28;20271;-89
2021/09/11 11:34:41;;;;;;;17.83;13.90;;;20.50;82.00;;;;;;5055750;28;20644;-89
2021/09/11 11:37:09;;;;;;;14.32;11.68;;;20.70;81.80;;;;;;5054474;28;20200;-88
2021/09/11 11:39:38;;;;;;;10.38;9.35;;;20.70;80.80;;;;;;5054331;28;20173;-89
2021/09/11 11:42:11;;;;;;;13.55;9.82;;;20.90;79.50;;;;;;5054163;28;20235;-89
2021/09/11 11:44:45;;;;;;;10.95;9.85;;;21.20;79.20;;;;;;5054494;28;20179;-89
2021/09/11 11:47:19;;;;;;;14.02;9.70;;;21.20;78.80;;;;;;5054454;28;20172;-89
2021/09/11 11:49:44;;;;;;;11.13;8.82;;;21.40;77.90;;;;;;5054082;28;20180;-89
2021/09/11 11:52:12;;;;;;;11.25;7.97;;;21.40;77.90;;;;;;5054187;28;20196;-89
2021/09/11 11:54:41;;;;;;;8.25;7.22;;;21.30;76.40;;;;;;5054081;28;20270;-89
2021/09/11 11:57:19;;;;;;;6.07;5.55;;;21.30;77.50;;;;;;5053772;28;20273;-89
2021/09/11 11:59:59;;;;;;;7.75;6.70;;;21.40;76.90;;;;;;5053900;28;20202;-88
2021/09/11 12:02:34;;;;;;;9.07;7.43;;;21.30;77.70;;;;;;5054935;28;20235;-87
2021/09/11 12:05:25;;;;;;;7.80;7.07;;;21.10;78.00;;;;;;5053828;28;20753;-88
2021/09/11 12:08:08;;;;;;;7.40;6.57;;;21.10;79.00;;;;;;5053976;28;20766;-88
2021/09/11 12:10:34;;;;;;;14.80;6.88;;;21.30;79.40;;;;;;5055413;28;20612;-89
2021/09/11 12:13:10;;;;;;;10.27;7.40;;;21.20;77.70;;;;;;5053829;28;20203;-89
2021/09/11 12:15:38;;;;;;;8.32;7.32;;;21.00;76.90;;;;;;5054837;28;20199;-88
2021/09/11 12:18:11;;;;;;;11.52;7.85;;;21.00;78.50;;;;;;5053556;28;20175;-88
2021/09/11 12:20:44;;;;;;;9.95;7.35;;;21.00;77.90;;;;;;5053194;28;20216;-88
2021/09/11 12:23:21;;;;;;;8.48;7.57;;;20.80;78.40;;;;;;5054690;28;20736;-88
2021/09/11 12:26:12;;;;;;;10.35;8.32;;;20.80;78.70;;;;;;5053594;28;20211;-88
2021/09/11 12:28:46;;;;;;;8.13;7.03;;;20.60;79.10;;;;;;5054870;28;20168;-88
2021/09/11 12:31:20;;;;;;;10.88;7.55;;;20.50;78.80;;;;;;5054826;28;20199;-87
2021/09/11 12:34:23;;;;;;;11.50;8.93;;;20.60;79.70;;;;;;5054680;28;20187;-88
2021/09/11 12:37:00;;;;;;;11.57;10.05;;;20.50;79.60;;;;;;5049468;28;20211;-89
2021/09/11 12:39:57;;;;;;;10.00;7.47;;;20.50;79.90;;;;;;5053513;28;20175;-89
2021/09/11 12:42:23;;;;;;;9.40;8.50;;;20.40;79.70;;;;;;5054274;28;20702;-89
2021/09/11 12:44:49;;;;;;;10.63;8.93;;;20.50;81.00;;;;;;5055055;28;20175;-89
2021/09/11 12:47:15;;;;;;;7.65;6.93;;;20.40;80.20;;;;;;5053987;28;20614;-88
2021/09/11 12:49:42;;;;;;;10.38;8.20;;;20.30;78.90;;;;;;5054345;28;20237;-89
2021/09/11 12:52:09;;;;;;;10.93;8.18;;;20.30;80.00;;;;;;5054581;28;20257;-88
2021/09/11 12:54:36;;;;;;;13.00;7.95;;;20.30;80.30;;;;;;5053626;28;20176;-88
2021/09/11 12:57:03;;;;;;;9.63;7.00;;;20.30;80.30;;;;;;5054267;28;20199;-87
2021/09/11 12:59:28;;;;;;;8.65;7.75;;;20.30;80.00;;;;;;5054677;28;20172;-87
2021/09/11 13:01:55;;;;;;;11.77;8.35;;;20.30;79.70;;;;;;5053669;28;20191;-88
2021/09/11 13:04:22;;;;;;;9.90;7.82;;;20.30;80.40;;;;;;5053726;28;20584;-88
2021/09/11 13:06:48;;;;;;;8.45;7.43;;;20.30;80.30;;;;;;5054695;28;20191;-88
2021/09/11 13:09:15;;;;;;;10.98;8.00;;;20.40;80.80;;;;;;5053239;28;20652;-88
2021/09/11 13:11:42;;;;;;;8.25;7.43;;;20.40;80.60;;;;;;5053166;28;20196;-87
2021/09/11 13:14:08;;;;;;;9.05;8.15;;;20.30;80.40;;;;;;5054718;28;20179;-87
2021/09/11 13:16:35;;;;;;;11.80;9.07;;;20.20;80.60;;;;;;5054458;28;20188;-87
2021/09/11 13:19:02;;;;;;;15.15;9.00;;;20.20;80.90;;;;;;5052948;28;20186;-86
2021/09/11 13:21:30;;;;;;;14.57;9.18;;;20.20;79.90;;;;;;5052853;28;20806;-86
2021/09/11 13:24:00;;;;;;;12.75;9.52;;;20.20;80.30;;;;;;5036382;28;20177;-86
2021/09/11 13:26:28;;;;;;;12.88;9.23;;;20.30;80.30;;;;;;5053090;28;20176;-87
2021/09/11 13:28:54;;;;;;;13.40;9.90;;;20.40;81.00;;;;;;5052534;28;20176;-88
2021/09/11 13:31:23;;;;;;;12.57;8.93;;;20.50;80.40;;;;;;5053903;28;20606;-88
2021/09/11 13:33:48;;;;;;;10.10;9.00;;;20.50;80.20;;;;;;5053569;28;20204;-88
2021/09/11 13:36:16;;;;;;;12.15;9.13;;;20.50;79.90;;;;;;5052529;28;20196;-87
2021/09/11 13:38:42;;;;;;;15.85;9.77;;;20.50;80.10;;;;;;5053784;28;20204;-89
2021/09/11 13:41:08;;;;;;;13.07;9.63;;;20.50;80.80;;;;;;5052732;28;20537;-88
2021/09/11 13:43:33;;;;;;;12.55;9.43;;;20.30;80.30;;;;;;5052512;28;20178;-88
2021/09/11 13:46:00;;;;;;;13.90;10.27;;;20.30;81.30;;;;;;5052557;28;20172;-88